sensor_id;sensor_type;location;lat;lon;timestamp;P1;durP1;ratioP1;P2;durP2;ratioP2
75520;SDS011;64102;48.628;9.002;2024-03-22T00:01:50;16.67;;;4.32;;
75520;SDS011;64102;48.628;9.002;2024-03-22T00:04:16;12.95;;;3.10;;
75520;SDS011;64102;48.628;9.002;2024-03-22T00:06:42;15.40;;;3.78;;
75520;SDS011;64102;48.628;9.002;2024-03-22T00:09:08;11.68;;;2.92;;
75520;SDS011;64102;48.628;9.002;2024-03-22T00:11:34;12.88;;;2.72;;
75520;SDS011;64102;48.628;9.002;2024-03-22T00:14:00;13.63;;;3.42;;
75520;SDS011;64102;48.628;9.002;2024-03-22T00:16:26;11.07;;;2.90;;
75520;SDS011;64102;48.628;9.002;2024-03-22T00:18:52;11.13;;;2.80;;
75520;SDS011;64102;48.628;9.002;2024-03-22T00:21:17;13.45;;;2.72;;
75520;SDS011;64102;48.628;9.002;2024-03-22T00:23:43;12.67;;;2.67;;
75520;SDS011;64102;48.628;9.002;2024-03-22T00:26:08;13.68;;;3.15;;
75520;SDS011;64102;48.628;9.002;2024-03-22T00:28:34;15.88;;;3.85;;
75520;SDS011;64102;48.628;9.002;2024-03-22T00:30:59;12.10;;;3.33;;
75520;SDS011;64102;48.628;9.002;2024-03-22T00:33:24;13.13;;;3.58;;
75520;SDS011;64102;48.628;9.002;2024-03-22T00:35:50;12.20;;;2.73;;
75520;SDS011;64102;48.628;9.002;2024-03-22T00:38:15;12.30;;;3.03;;
75520;SDS011;64102;48.628;9.002;2024-03-22T00:40:40;11.97;;;2.53;;
75520;SDS011;64102;48.628;9.002;2024-03-22T00:43:06;11.73;;;2.90;;
75520;SDS011;64102;48.628;9.002;2024-03-22T00:45:31;13.88;;;3.30;;
75520;SDS011;64102;48.628;9.002;2024-03-22T00:47:57;13.27;;;3.07;;
75520;SDS011;64102;48.628;9.002;2024-03-22T00:50:22;15.97;;;4.63;;
75520;SDS011;64102;48.628;9.002;2024-03-22T00:52:47;15.73;;;4.47;;
75520;SDS011;64102;48.628;9.002;2024-03-22T00:55:15;16.75;;;4.80;;
75520;SDS011;64102;48.628;9.002;2024-03-22T00:57:40;11.53;;;2.67;;
75520;SDS011;64102;48.628;9.002;2024-03-22T01:00:06;13.03;;;3.30;;
75520;SDS011;64102;48.628;9.002;2024-03-22T01:02:32;12.70;;;2.80;;
75520;SDS011;64102;48.628;9.002;2024-03-22T01:04:57;13.00;;;2.77;;
75520;SDS011;64102;48.628;9.002;2024-03-22T01:07:23;11.52;;;2.60;;
75520;SDS011;64102;48.628;9.002;2024-03-22T01:09:48;10.83;;;2.57;;
75520;SDS011;64102;48.628;9.002;2024-03-22T01:12:14;10.13;;;2.08;;
75520;SDS011;64102;48.628;9.002;2024-03-22T01:14:39;11.73;;;2.77;;
75520;SDS011;64102;48.628;9.002;2024-03-22T01:17:04;10.97;;;2.53;;
75520;SDS011;64102;48.628;9.002;2024-03-22T01:19:30;10.70;;;2.45;;
75520;SDS011;64102;48.628;9.002;2024-03-22T01:21:55;13.03;;;2.43;;
75520;SDS011;64102;48.628;9.002;2024-03-22T01:24:20;11.50;;;2.90;;
75520;SDS011;64102;48.628;9.002;2024-03-22T01:26:45;12.53;;;2.70;;
75520;SDS011;64102;48.628;9.002;2024-03-22T01:29:11;15.40;;;2.67;;
75520;SDS011;64102;48.628;9.002;2024-03-22T01:31:36;11.93;;;2.40;;
75520;SDS011;64102;48.628;9.002;2024-03-22T01:34:01;13.70;;;2.90;;
75520;SDS011;64102;48.628;9.002;2024-03-22T01:36:27;12.48;;;2.78;;
75520;SDS011;64102;48.628;9.002;2024-03-22T01:38:52;12.10;;;2.97;;
75520;SDS011;64102;48.628;9.002;2024-03-22T01:41:18;13.63;;;3.23;;
75520;SDS011;64102;48.628;9.002;2024-03-22T01:43:43;11.27;;;3.13;;
75520;SDS011;64102;48.628;9.002;2024-03-22T01:46:09;12.77;;;2.60;;
75520;SDS011;64102;48.628;9.002;2024-03-22T01:48:34;13.38;;;2.58;;
75520;SDS011;64102;48.628;9.002;2024-03-22T01:51:00;12.70;;;2.33;;
75520;SDS011;64102;48.628;9.002;2024-03-22T01:53:27;12.02;;;2.50;;
75520;SDS011;64102;48.628;9.002;2024-03-22T01:55:52;12.02;;;3.03;;
75520;SDS011;64102;48.628;9.002;2024-03-22T01:58:17;12.40;;;2.43;;
75520;SDS011;64102;48.628;9.002;2024-03-22T02:00:43;13.00;;;3.30;;
75520;SDS011;64102;48.628;9.002;2024-03-22T02:03:08;13.13;;;2.77;;
75520;SDS011;64102;48.628;9.002;2024-03-22T02:05:34;13.33;;;2.93;;
75520;SDS011;64102;48.628;9.002;2024-03-22T02:07:59;14.50;;;2.95;;
75520;SDS011;64102;48.628;9.002;2024-03-22T02:10:24;14.80;;;3.33;;
75520;SDS011;64102;48.628;9.002;2024-03-22T02:12:50;12.23;;;2.78;;
75520;SDS011;64102;48.628;9.002;2024-03-22T02:15:15;11.70;;;2.70;;
75520;SDS011;64102;48.628;9.002;2024-03-22T02:17:40;11.68;;;2.38;;
75520;SDS011;64102;48.628;9.002;2024-03-22T02:20:06;13.37;;;2.97;;
75520;SDS011;64102;48.628;9.002;2024-03-22T02:22:32;13.98;;;3.15;;
75520;SDS011;64102;48.628;9.002;2024-03-22T02:24:58;12.85;;;2.95;;
75520;SDS011;64102;48.628;9.002;2024-03-22T02:27:24;11.80;;;2.42;;
75520;SDS011;64102;48.628;9.002;2024-03-22T02:29:50;14.45;;;3.08;;
75520;SDS011;64102;48.628;9.002;2024-03-22T02:32:15;10.73;;;2.47;;
75520;SDS011;64102;48.628;9.002;2024-03-22T02:34:40;14.63;;;2.77;;
75520;SDS011;64102;48.628;9.002;2024-03-22T02:37:06;13.43;;;3.43;;
75520;SDS011;64102;48.628;9.002;2024-03-22T02:39:32;13.27;;;2.38;;
75520;SDS011;64102;48.628;9.002;2024-03-22T02:41:57;12.40;;;2.97;;
75520;SDS011;64102;48.628;9.002;2024-03-22T02:44:22;12.47;;;2.93;;
75520;SDS011;64102;48.628;9.002;2024-03-22T02:46:48;14.97;;;4.47;;
75520;SDS011;64102;48.628;9.002;2024-03-22T02:49:13;17.23;;;3.47;;
75520;SDS011;64102;48.628;9.002;2024-03-22T02:51:38;15.90;;;4.27;;
75520;SDS011;64102;48.628;9.002;2024-03-22T02:54:04;20.27;;;4.60;;
75520;SDS011;64102;48.628;9.002;2024-03-22T02:56:29;17.88;;;4.50;;
75520;SDS011;64102;48.628;9.002;2024-03-22T02:58:55;12.65;;;3.05;;
75520;SDS011;64102;48.628;9.002;2024-03-22T03:01:20;16.17;;;4.47;;
75520;SDS011;64102;48.628;9.002;2024-03-22T03:03:46;13.55;;;3.90;;
75520;SDS011;64102;48.628;9.002;2024-03-22T03:06:11;16.55;;;4.05;;
75520;SDS011;64102;48.628;9.002;2024-03-22T03:08:38;17.30;;;4.82;;
75520;SDS011;64102;48.628;9.002;2024-03-22T03:11:04;14.82;;;3.80;;
75520;SDS011;64102;48.628;9.002;2024-03-22T03:13:29;13.18;;;3.65;;
75520;SDS011;64102;48.628;9.002;2024-03-22T03:15:55;13.75;;;4.00;;
75520;SDS011;64102;48.628;9.002;2024-03-22T03:18:20;16.03;;;4.20;;
75520;SDS011;64102;48.628;9.002;2024-03-22T03:20:45;15.88;;;4.32;;
75520;SDS011;64102;48.628;9.002;2024-03-22T03:23:11;13.87;;;3.50;;
75520;SDS011;64102;48.628;9.002;2024-03-22T03:25:36;14.73;;;3.90;;
75520;SDS011;64102;48.628;9.002;2024-03-22T03:28:01;18.43;;;4.13;;
75520;SDS011;64102;48.628;9.002;2024-03-22T03:30:27;14.75;;;3.53;;
75520;SDS011;64102;48.628;9.002;2024-03-22T03:32:52;12.87;;;3.33;;
75520;SDS011;64102;48.628;9.002;2024-03-22T03:35:18;14.13;;;3.70;;
75520;SDS011;64102;48.628;9.002;2024-03-22T03:37:43;14.30;;;3.92;;
75520;SDS011;64102;48.628;9.002;2024-03-22T03:40:08;16.50;;;4.37;;
75520;SDS011;64102;48.628;9.002;2024-03-22T03:42:34;14.07;;;3.80;;
75520;SDS011;64102;48.628;9.002;2024-03-22T03:44:59;12.47;;;3.57;;
75520;SDS011;64102;48.628;9.002;2024-03-22T03:47:25;13.90;;;3.50;;
75520;SDS011;64102;48.628;9.002;2024-03-22T03:49:50;14.20;;;3.97;;
75520;SDS011;64102;48.628;9.002;2024-03-22T03:52:17;14.77;;;3.60;;
75520;SDS011;64102;48.628;9.002;2024-03-22T03:54:42;18.60;;;4.00;;
75520;SDS011;64102;48.628;9.002;2024-03-22T03:57:08;14.88;;;4.60;;
75520;SDS011;64102;48.628;9.002;2024-03-22T03:59:33;15.53;;;3.73;;
75520;SDS011;64102;48.628;9.002;2024-03-22T04:01:58;11.93;;;3.40;;
75520;SDS011;64102;48.628;9.002;2024-03-22T04:04:24;13.68;;;3.60;;
75520;SDS011;64102;48.628;9.002;2024-03-22T04:06:49;12.60;;;3.07;;
75520;SDS011;64102;48.628;9.002;2024-03-22T04:09:14;13.70;;;2.83;;
75520;SDS011;64102;48.628;9.002;2024-03-22T04:11:40;14.77;;;3.27;;
75520;SDS011;64102;48.628;9.002;2024-03-22T04:14:05;13.07;;;2.83;;
75520;SDS011;64102;48.628;9.002;2024-03-22T04:16:30;12.40;;;3.10;;
75520;SDS011;64102;48.628;9.002;2024-03-22T04:18:56;11.13;;;2.85;;
75520;SDS011;64102;48.628;9.002;2024-03-22T04:21:22;12.10;;;3.08;;
75520;SDS011;64102;48.628;9.002;2024-03-22T04:23:47;14.55;;;3.75;;
75520;SDS011;64102;48.628;9.002;2024-03-22T04:26:12;12.40;;;3.30;;
75520;SDS011;64102;48.628;9.002;2024-03-22T04:28:38;13.27;;;2.87;;
75520;SDS011;64102;48.628;9.002;2024-03-22T04:31:04;14.23;;;2.97;;
75520;SDS011;64102;48.628;9.002;2024-03-22T04:33:32;15.18;;;3.65;;
75520;SDS011;64102;48.628;9.002;2024-03-22T04:35:58;14.18;;;3.28;;
75520;SDS011;64102;48.628;9.002;2024-03-22T04:38:25;11.20;;;2.47;;
75520;SDS011;64102;48.628;9.002;2024-03-22T04:40:51;11.15;;;3.03;;
75520;SDS011;64102;48.628;9.002;2024-03-22T04:43:17;11.80;;;2.63;;
75520;SDS011;64102;48.628;9.002;2024-03-22T04:45:43;12.48;;;2.67;;
75520;SDS011;64102;48.628;9.002;2024-03-22T04:48:09;13.20;;;3.03;;
75520;SDS011;64102;48.628;9.002;2024-03-22T04:50:35;13.30;;;3.20;;
75520;SDS011;64102;48.628;9.002;2024-03-22T04:53:01;15.40;;;3.30;;
75520;SDS011;64102;48.628;9.002;2024-03-22T04:55:27;15.18;;;3.72;;
75520;SDS011;64102;48.628;9.002;2024-03-22T04:57:52;12.67;;;3.47;;
75520;SDS011;64102;48.628;9.002;2024-03-22T05:00:18;12.95;;;3.83;;
75520;SDS011;64102;48.628;9.002;2024-03-22T05:02:43;14.30;;;3.50;;
75520;SDS011;64102;48.628;9.002;2024-03-22T05:05:09;13.33;;;3.73;;
75520;SDS011;64102;48.628;9.002;2024-03-22T05:07:34;12.32;;;3.05;;
75520;SDS011;64102;48.628;9.002;2024-03-22T05:10:00;17.52;;;3.40;;
75520;SDS011;64102;48.628;9.002;2024-03-22T05:12:26;13.43;;;3.70;;
75520;SDS011;64102;48.628;9.002;2024-03-22T05:14:51;12.07;;;2.87;;
75520;SDS011;64102;48.628;9.002;2024-03-22T05:17:17;13.43;;;3.27;;
75520;SDS011;64102;48.628;9.002;2024-03-22T05:19:42;11.67;;;2.90;;
75520;SDS011;64102;48.628;9.002;2024-03-22T05:22:08;13.13;;;3.08;;
75520;SDS011;64102;48.628;9.002;2024-03-22T05:24:33;12.20;;;3.03;;
75520;SDS011;64102;48.628;9.002;2024-03-22T05:26:58;13.90;;;3.60;;
75520;SDS011;64102;48.628;9.002;2024-03-22T05:29:24;12.63;;;2.78;;
75520;SDS011;64102;48.628;9.002;2024-03-22T05:31:50;17.83;;;3.60;;
75520;SDS011;64102;48.628;9.002;2024-03-22T05:34:16;15.55;;;3.95;;
75520;SDS011;64102;48.628;9.002;2024-03-22T05:36:42;14.52;;;4.18;;
75520;SDS011;64102;48.628;9.002;2024-03-22T05:39:07;14.33;;;3.63;;
75520;SDS011;64102;48.628;9.002;2024-03-22T05:41:33;12.43;;;4.05;;
75520;SDS011;64102;48.628;9.002;2024-03-22T05:43:58;17.95;;;3.38;;
75520;SDS011;64102;48.628;9.002;2024-03-22T05:46:24;14.23;;;3.78;;
75520;SDS011;64102;48.628;9.002;2024-03-22T05:48:49;12.10;;;3.50;;
75520;SDS011;64102;48.628;9.002;2024-03-22T05:51:17;17.27;;;3.80;;
75520;SDS011;64102;48.628;9.002;2024-03-22T05:53:42;16.00;;;3.88;;
75520;SDS011;64102;48.628;9.002;2024-03-22T05:56:08;12.82;;;3.88;;
75520;SDS011;64102;48.628;9.002;2024-03-22T05:58:34;12.33;;;3.47;;
75520;SDS011;64102;48.628;9.002;2024-03-22T06:01:01;15.15;;;3.50;;
75520;SDS011;64102;48.628;9.002;2024-03-22T06:03:26;13.02;;;3.00;;
75520;SDS011;64102;48.628;9.002;2024-03-22T06:05:52;13.18;;;3.05;;
75520;SDS011;64102;48.628;9.002;2024-03-22T06:08:20;14.73;;;3.50;;
75520;SDS011;64102;48.628;9.002;2024-03-22T06:10:46;12.73;;;3.17;;
75520;SDS011;64102;48.628;9.002;2024-03-22T06:13:11;13.95;;;2.88;;
75520;SDS011;64102;48.628;9.002;2024-03-22T06:15:36;13.90;;;2.63;;
75520;SDS011;64102;48.628;9.002;2024-03-22T06:18:02;12.63;;;3.50;;
75520;SDS011;64102;48.628;9.002;2024-03-22T06:20:27;12.32;;;3.10;;
75520;SDS011;64102;48.628;9.002;2024-03-22T06:22:53;12.67;;;2.90;;
75520;SDS011;64102;48.628;9.002;2024-03-22T06:25:18;11.57;;;2.83;;
75520;SDS011;64102;48.628;9.002;2024-03-22T06:27:43;15.02;;;2.70;;
75520;SDS011;64102;48.628;9.002;2024-03-22T06:30:09;11.07;;;2.95;;
75520;SDS011;64102;48.628;9.002;2024-03-22T06:32:35;12.60;;;2.78;;
75520;SDS011;64102;48.628;9.002;2024-03-22T06:35:00;9.85;;;2.70;;
75520;SDS011;64102;48.628;9.002;2024-03-22T06:37:25;11.63;;;2.58;;
75520;SDS011;64102;48.628;9.002;2024-03-22T06:39:51;13.38;;;3.65;;
75520;SDS011;64102;48.628;9.002;2024-03-22T06:42:16;15.50;;;4.50;;
75520;SDS011;64102;48.628;9.002;2024-03-22T06:44:41;11.15;;;2.80;;
75520;SDS011;64102;48.628;9.002;2024-03-22T06:47:07;12.13;;;3.27;;
75520;SDS011;64102;48.628;9.002;2024-03-22T06:49:32;13.52;;;2.67;;
75520;SDS011;64102;48.628;9.002;2024-03-22T06:51:58;10.93;;;2.70;;
75520;SDS011;64102;48.628;9.002;2024-03-22T06:54:24;11.73;;;2.70;;
75520;SDS011;64102;48.628;9.002;2024-03-22T06:56:51;14.75;;;3.25;;
75520;SDS011;64102;48.628;9.002;2024-03-22T06:59:16;12.50;;;2.80;;
75520;SDS011;64102;48.628;9.002;2024-03-22T07:01:42;11.82;;;3.25;;
75520;SDS011;64102;48.628;9.002;2024-03-22T07:04:07;15.13;;;3.50;;
75520;SDS011;64102;48.628;9.002;2024-03-22T07:06:33;13.10;;;2.93;;
75520;SDS011;64102;48.628;9.002;2024-03-22T07:08:58;10.73;;;2.40;;
75520;SDS011;64102;48.628;9.002;2024-03-22T07:11:23;11.43;;;3.00;;
75520;SDS011;64102;48.628;9.002;2024-03-22T07:13:49;11.65;;;2.70;;
75520;SDS011;64102;48.628;9.002;2024-03-22T07:16:14;10.27;;;2.33;;
75520;SDS011;64102;48.628;9.002;2024-03-22T07:18:39;10.73;;;2.93;;
75520;SDS011;64102;48.628;9.002;2024-03-22T07:21:05;13.50;;;2.90;;
75520;SDS011;64102;48.628;9.002;2024-03-22T07:23:30;11.18;;;2.33;;
75520;SDS011;64102;48.628;9.002;2024-03-22T07:25:56;12.47;;;2.70;;
75520;SDS011;64102;48.628;9.002;2024-03-22T07:28:21;10.50;;;2.65;;
75520;SDS011;64102;48.628;9.002;2024-03-22T07:30:46;11.20;;;2.90;;
75520;SDS011;64102;48.628;9.002;2024-03-22T07:33:12;11.23;;;2.58;;
75520;SDS011;64102;48.628;9.002;2024-03-22T07:35:38;11.38;;;2.30;;
75520;SDS011;64102;48.628;9.002;2024-03-22T07:38:04;10.90;;;2.85;;
75520;SDS011;64102;48.628;9.002;2024-03-22T07:40:30;10.73;;;3.03;;
75520;SDS011;64102;48.628;9.002;2024-03-22T07:42:55;11.43;;;2.77;;
75520;SDS011;64102;48.628;9.002;2024-03-22T07:45:20;11.45;;;2.40;;
75520;SDS011;64102;48.628;9.002;2024-03-22T07:47:46;11.30;;;2.87;;
75520;SDS011;64102;48.628;9.002;2024-03-22T07:50:11;12.90;;;2.97;;
75520;SDS011;64102;48.628;9.002;2024-03-22T07:52:36;11.53;;;2.80;;
75520;SDS011;64102;48.628;9.002;2024-03-22T07:55:02;12.30;;;2.67;;
75520;SDS011;64102;48.628;9.002;2024-03-22T07:57:28;11.23;;;2.40;;
75520;SDS011;64102;48.628;9.002;2024-03-22T07:59:56;10.70;;;2.53;;
75520;SDS011;64102;48.628;9.002;2024-03-22T08:02:24;9.77;;;2.65;;
75520;SDS011;64102;48.628;9.002;2024-03-22T08:04:50;10.60;;;2.50;;
75520;SDS011;64102;48.628;9.002;2024-03-22T08:07:15;10.57;;;2.33;;
75520;SDS011;64102;48.628;9.002;2024-03-22T08:09:40;11.98;;;2.90;;
75520;SDS011;64102;48.628;9.002;2024-03-22T08:12:06;11.90;;;3.58;;
75520;SDS011;64102;48.628;9.002;2024-03-22T08:14:32;9.38;;;2.55;;
75520;SDS011;64102;48.628;9.002;2024-03-22T08:16:57;9.40;;;2.17;;
75520;SDS011;64102;48.628;9.002;2024-03-22T08:19:22;8.97;;;2.10;;
75520;SDS011;64102;48.628;9.002;2024-03-22T08:21:48;10.73;;;2.83;;
75520;SDS011;64102;48.628;9.002;2024-03-22T08:24:14;8.85;;;1.95;;
75520;SDS011;64102;48.628;9.002;2024-03-22T08:26:39;9.47;;;2.20;;
75520;SDS011;64102;48.628;9.002;2024-03-22T08:29:04;8.50;;;2.00;;
75520;SDS011;64102;48.628;9.002;2024-03-22T08:31:30;9.57;;;2.55;;
75520;SDS011;64102;48.628;9.002;2024-03-22T08:33:55;8.35;;;2.30;;
75520;SDS011;64102;48.628;9.002;2024-03-22T08:36:21;12.43;;;2.70;;
75520;SDS011;64102;48.628;9.002;2024-03-22T08:38:48;9.63;;;2.17;;
75520;SDS011;64102;48.628;9.002;2024-03-22T08:41:13;12.13;;;2.92;;
75520;SDS011;64102;48.628;9.002;2024-03-22T08:43:39;9.03;;;2.37;;
75520;SDS011;64102;48.628;9.002;2024-03-22T08:46:04;9.07;;;2.17;;
75520;SDS011;64102;48.628;9.002;2024-03-22T08:48:29;10.67;;;2.27;;
75520;SDS011;64102;48.628;9.002;2024-03-22T08:50:55;9.83;;;2.37;;
75520;SDS011;64102;48.628;9.002;2024-03-22T08:53:20;9.10;;;2.10;;
75520;SDS011;64102;48.628;9.002;2024-03-22T08:55:46;9.60;;;2.07;;
75520;SDS011;64102;48.628;9.002;2024-03-22T08:58:13;11.25;;;1.77;;
75520;SDS011;64102;48.628;9.002;2024-03-22T09:00:40;10.43;;;2.63;;
75520;SDS011;64102;48.628;9.002;2024-03-22T09:03:09;11.75;;;3.30;;
75520;SDS011;64102;48.628;9.002;2024-03-22T09:05:34;8.90;;;2.08;;
75520;SDS011;64102;48.628;9.002;2024-03-22T09:08:00;10.77;;;2.70;;
75520;SDS011;64102;48.628;9.002;2024-03-22T09:10:26;10.38;;;2.55;;
75520;SDS011;64102;48.628;9.002;2024-03-22T09:12:51;11.05;;;2.42;;
75520;SDS011;64102;48.628;9.002;2024-03-22T09:15:17;10.43;;;2.78;;
75520;SDS011;64102;48.628;9.002;2024-03-22T09:17:42;12.63;;;2.50;;
75520;SDS011;64102;48.628;9.002;2024-03-22T09:20:08;12.55;;;2.83;;
75520;SDS011;64102;48.628;9.002;2024-03-22T09:22:34;9.07;;;2.40;;
75520;SDS011;64102;48.628;9.002;2024-03-22T09:24:59;10.68;;;2.30;;
75520;SDS011;64102;48.628;9.002;2024-03-22T09:27:25;10.43;;;2.80;;
75520;SDS011;64102;48.628;9.002;2024-03-22T09:29:50;8.85;;;1.90;;
75520;SDS011;64102;48.628;9.002;2024-03-22T09:32:15;8.77;;;2.30;;
75520;SDS011;64102;48.628;9.002;2024-03-22T09:34:41;8.53;;;2.20;;
75520;SDS011;64102;48.628;9.002;2024-03-22T09:37:07;8.88;;;2.20;;
75520;SDS011;64102;48.628;9.002;2024-03-22T09:39:33;8.50;;;1.95;;
75520;SDS011;64102;48.628;9.002;2024-03-22T09:41:58;14.10;;;3.13;;
75520;SDS011;64102;48.628;9.002;2024-03-22T09:44:26;8.82;;;2.50;;
75520;SDS011;64102;48.628;9.002;2024-03-22T09:46:52;9.35;;;2.33;;
75520;SDS011;64102;48.628;9.002;2024-03-22T09:49:18;9.93;;;2.50;;
75520;SDS011;64102;48.628;9.002;2024-03-22T09:51:43;8.95;;;2.30;;
75520;SDS011;64102;48.628;9.002;2024-03-22T09:54:12;9.60;;;2.38;;
75520;SDS011;64102;48.628;9.002;2024-03-22T09:56:40;9.40;;;2.17;;
75520;SDS011;64102;48.628;9.002;2024-03-22T09:59:07;19.00;;;3.28;;
75520;SDS011;64102;48.628;9.002;2024-03-22T10:01:34;10.32;;;2.85;;
75520;SDS011;64102;48.628;9.002;2024-03-22T10:04:00;9.00;;;2.33;;
75520;SDS011;64102;48.628;9.002;2024-03-22T10:06:26;10.70;;;2.53;;
75520;SDS011;64102;48.628;9.002;2024-03-22T10:08:51;9.70;;;3.25;;
75520;SDS011;64102;48.628;9.002;2024-03-22T10:11:16;9.73;;;2.85;;
75520;SDS011;64102;48.628;9.002;2024-03-22T10:13:43;10.88;;;2.65;;
75520;SDS011;64102;48.628;9.002;2024-03-22T10:16:09;9.50;;;2.22;;
75520;SDS011;64102;48.628;9.002;2024-03-22T10:18:34;9.17;;;1.80;;
75520;SDS011;64102;48.628;9.002;2024-03-22T10:23:31;7.57;;;1.85;;
75520;SDS011;64102;48.628;9.002;2024-03-22T10:25:57;8.43;;;1.70;;
75520;SDS011;64102;48.628;9.002;2024-03-22T10:28:23;9.13;;;2.35;;
75520;SDS011;64102;48.628;9.002;2024-03-22T10:30:50;9.30;;;2.25;;
75520;SDS011;64102;48.628;9.002;2024-03-22T10:33:18;8.63;;;2.47;;
75520;SDS011;64102;48.628;9.002;2024-03-22T10:35:44;7.93;;;2.30;;
75520;SDS011;64102;48.628;9.002;2024-03-22T10:38:10;10.27;;;2.58;;
75520;SDS011;64102;48.628;9.002;2024-03-22T10:40:37;10.50;;;3.00;;
75520;SDS011;64102;48.628;9.002;2024-03-22T10:43:04;9.97;;;2.90;;
75520;SDS011;64102;48.628;9.002;2024-03-22T10:45:29;8.63;;;2.42;;
75520;SDS011;64102;48.628;9.002;2024-03-22T10:47:56;8.48;;;2.47;;
75520;SDS011;64102;48.628;9.002;2024-03-22T10:50:22;8.75;;;1.95;;
75520;SDS011;64102;48.628;9.002;2024-03-22T10:55:28;12.35;;;2.85;;
75520;SDS011;64102;48.628;9.002;2024-03-22T10:57:59;9.48;;;2.75;;
75520;SDS011;64102;48.628;9.002;2024-03-22T11:00:28;9.50;;;2.28;;
75520;SDS011;64102;48.628;9.002;2024-03-22T11:02:55;9.68;;;2.17;;
75520;SDS011;64102;48.628;9.002;2024-03-22T11:05:21;11.63;;;2.42;;
75520;SDS011;64102;48.628;9.002;2024-03-22T11:07:46;10.90;;;2.25;;
75520;SDS011;64102;48.628;9.002;2024-03-22T11:10:12;8.90;;;2.40;;
75520;SDS011;64102;48.628;9.002;2024-03-22T11:12:38;8.38;;;2.75;;
75520;SDS011;64102;48.628;9.002;2024-03-22T11:15:04;10.43;;;2.38;;
75520;SDS011;64102;48.628;9.002;2024-03-22T11:17:30;9.25;;;2.22;;
75520;SDS011;64102;48.628;9.002;2024-03-22T11:19:55;8.30;;;2.10;;
75520;SDS011;64102;48.628;9.002;2024-03-22T11:22:21;9.50;;;2.97;;
75520;SDS011;64102;48.628;9.002;2024-03-22T11:24:46;9.73;;;2.50;;
75520;SDS011;64102;48.628;9.002;2024-03-22T11:27:11;9.25;;;2.22;;
75520;SDS011;64102;48.628;9.002;2024-03-22T11:29:37;11.60;;;3.45;;
75520;SDS011;64102;48.628;9.002;2024-03-22T11:32:11;9.48;;;3.03;;
75520;SDS011;64102;48.628;9.002;2024-03-22T11:34:37;10.10;;;3.63;;
75520;SDS011;64102;48.628;9.002;2024-03-22T11:37:04;10.30;;;3.28;;
75520;SDS011;64102;48.628;9.002;2024-03-22T11:39:32;10.63;;;5.47;;
75520;SDS011;64102;48.628;9.002;2024-03-22T11:42:00;10.05;;;2.75;;
75520;SDS011;64102;48.628;9.002;2024-03-22T11:44:28;9.00;;;3.42;;
75520;SDS011;64102;48.628;9.002;2024-03-22T11:46:53;9.02;;;3.25;;
75520;SDS011;64102;48.628;9.002;2024-03-22T11:49:19;9.07;;;2.88;;
75520;SDS011;64102;48.628;9.002;2024-03-22T11:51:44;9.20;;;2.58;;
75520;SDS011;64102;48.628;9.002;2024-03-22T11:54:10;8.35;;;2.33;;
75520;SDS011;64102;48.628;9.002;2024-03-22T11:56:35;7.63;;;2.57;;
75520;SDS011;64102;48.628;9.002;2024-03-22T11:59:01;8.60;;;2.72;;
75520;SDS011;64102;48.628;9.002;2024-03-22T12:01:28;8.48;;;2.42;;
75520;SDS011;64102;48.628;9.002;2024-03-22T12:03:54;8.45;;;2.80;;
75520;SDS011;64102;48.628;9.002;2024-03-22T12:06:20;7.75;;;1.73;;
75520;SDS011;64102;48.628;9.002;2024-03-22T12:08:45;9.50;;;2.30;;
75520;SDS011;64102;48.628;9.002;2024-03-22T12:11:11;8.65;;;2.55;;
75520;SDS011;64102;48.628;9.002;2024-03-22T12:13:37;10.50;;;2.97;;
75520;SDS011;64102;48.628;9.002;2024-03-22T12:16:03;8.80;;;2.30;;
75520;SDS011;64102;48.628;9.002;2024-03-22T12:18:29;11.57;;;1.98;;
75520;SDS011;64102;48.628;9.002;2024-03-22T12:20:54;9.20;;;2.05;;
75520;SDS011;64102;48.628;9.002;2024-03-22T12:23:20;9.20;;;2.13;;
75520;SDS011;64102;48.628;9.002;2024-03-22T12:25:45;7.47;;;1.73;;
75520;SDS011;64102;48.628;9.002;2024-03-22T12:28:11;8.97;;;2.13;;
75520;SDS011;64102;48.628;9.002;2024-03-22T12:30:36;9.93;;;1.80;;
75520;SDS011;64102;48.628;9.002;2024-03-22T12:33:01;8.38;;;1.90;;
75520;SDS011;64102;48.628;9.002;2024-03-22T12:35:27;8.93;;;1.83;;
75520;SDS011;64102;48.628;9.002;2024-03-22T12:37:52;7.95;;;1.98;;
75520;SDS011;64102;48.628;9.002;2024-03-22T12:40:18;8.50;;;1.90;;
75520;SDS011;64102;48.628;9.002;2024-03-22T12:42:44;8.17;;;1.67;;
75520;SDS011;64102;48.628;9.002;2024-03-22T12:45:09;9.73;;;1.92;;
75520;SDS011;64102;48.628;9.002;2024-03-22T12:47:34;8.43;;;2.10;;
75520;SDS011;64102;48.628;9.002;2024-03-22T12:50:00;11.07;;;2.13;;
75520;SDS011;64102;48.628;9.002;2024-03-22T12:52:25;6.67;;;1.10;;
75520;SDS011;64102;48.628;9.002;2024-03-22T12:54:50;8.27;;;1.30;;
75520;SDS011;64102;48.628;9.002;2024-03-22T12:57:16;8.07;;;1.40;;
75520;SDS011;64102;48.628;9.002;2024-03-22T12:59:41;8.97;;;1.30;;
75520;SDS011;64102;48.628;9.002;2024-03-22T13:02:07;8.87;;;1.47;;
75520;SDS011;64102;48.628;9.002;2024-03-22T13:04:33;7.15;;;1.35;;
75520;SDS011;64102;48.628;9.002;2024-03-22T13:06:58;7.30;;;1.40;;
75520;SDS011;64102;48.628;9.002;2024-03-22T13:09:24;7.10;;;1.85;;
75520;SDS011;64102;48.628;9.002;2024-03-22T13:11:49;7.13;;;1.00;;
75520;SDS011;64102;48.628;9.002;2024-03-22T13:14:14;6.97;;;1.07;;
75520;SDS011;64102;48.628;9.002;2024-03-22T13:16:40;6.53;;;1.10;;
75520;SDS011;64102;48.628;9.002;2024-03-22T13:19:06;6.80;;;1.00;;
75520;SDS011;64102;48.628;9.002;2024-03-22T13:21:33;5.70;;;1.08;;
75520;SDS011;64102;48.628;9.002;2024-03-22T13:23:59;6.55;;;1.20;;
75520;SDS011;64102;48.628;9.002;2024-03-22T13:26:24;5.30;;;0.63;;
75520;SDS011;64102;48.628;9.002;2024-03-22T13:28:50;6.15;;;0.80;;
75520;SDS011;64102;48.628;9.002;2024-03-22T13:31:16;4.93;;;0.60;;
75520;SDS011;64102;48.628;9.002;2024-03-22T13:33:42;6.35;;;0.60;;
75520;SDS011;64102;48.628;9.002;2024-03-22T13:36:08;6.13;;;0.88;;
75520;SDS011;64102;48.628;9.002;2024-03-22T13:38:33;4.80;;;0.57;;
75520;SDS011;64102;48.628;9.002;2024-03-22T13:40:59;6.25;;;0.88;;
75520;SDS011;64102;48.628;9.002;2024-03-22T13:43:28;5.78;;;0.93;;
75520;SDS011;64102;48.628;9.002;2024-03-22T13:45:53;7.35;;;1.15;;
75520;SDS011;64102;48.628;9.002;2024-03-22T13:48:20;5.07;;;0.60;;
75520;SDS011;64102;48.628;9.002;2024-03-22T13:50:49;5.15;;;0.70;;
75520;SDS011;64102;48.628;9.002;2024-03-22T13:53:18;5.90;;;1.15;;
75520;SDS011;64102;48.628;9.002;2024-03-22T13:55:44;5.20;;;0.60;;
75520;SDS011;64102;48.628;9.002;2024-03-22T13:58:09;5.45;;;0.70;;
75520;SDS011;64102;48.628;9.002;2024-03-22T14:00:34;4.23;;;0.60;;
75520;SDS011;64102;48.628;9.002;2024-03-22T14:03:01;5.85;;;1.38;;
75520;SDS011;64102;48.628;9.002;2024-03-22T14:05:26;6.20;;;1.23;;
75520;SDS011;64102;48.628;9.002;2024-03-22T14:07:51;6.30;;;0.77;;
75520;SDS011;64102;48.628;9.002;2024-03-22T14:10:17;2.70;;;0.50;;
75520;SDS011;64102;48.628;9.002;2024-03-22T14:12:43;4.80;;;1.77;;
75520;SDS011;64102;48.628;9.002;2024-03-22T14:15:11;4.72;;;0.73;;
75520;SDS011;64102;48.628;9.002;2024-03-22T14:17:36;3.22;;;0.75;;
75520;SDS011;64102;48.628;9.002;2024-03-22T14:20:02;6.22;;;0.63;;
75520;SDS011;64102;48.628;9.002;2024-03-22T14:22:35;3.10;;;0.43;;
75520;SDS011;64102;48.628;9.002;2024-03-22T14:25:00;2.93;;;0.20;;
75520;SDS011;64102;48.628;9.002;2024-03-22T14:27:27;3.30;;;0.20;;
75520;SDS011;64102;48.628;9.002;2024-03-22T14:29:52;2.88;;;0.20;;
75520;SDS011;64102;48.628;9.002;2024-03-22T14:32:18;1.83;;;0.10;;
75520;SDS011;64102;48.628;9.002;2024-03-22T14:34:43;1.93;;;0.10;;